sensor_id;sensor_type;location;lat;lon;timestamp;pressure;altitude;pressure_sealevel;temperature;humidity
65832;BME280;52593;42.648;23.332;2023-04-09T00:00:33;94725.53;;;5.00;100.00
65832;BME280;52593;42.648;23.332;2023-04-09T00:02:58;94719.69;;;4.97;100.00
65832;BME280;52593;42.648;23.332;2023-04-09T00:05:23;94731.69;;;5.01;100.00
65832;BME280;52593;42.648;23.332;2023-04-09T00:07:49;94726.94;;;5.05;100.00
65832;BME280;52593;42.648;23.332;2023-04-09T00:10:15;94726.09;;;5.04;100.00
65832;BME280;52593;42.648;23.332;2023-04-09T00:12:40;94726.63;;;5.08;100.00
65832;BME280;52593;42.648;23.332;2023-04-09T00:15:06;94731.13;;;5.07;100.00
65832;BME280;52593;42.648;23.332;2023-04-09T00:17:31;94728.91;;;5.03;100.00
65832;BME280;52593;42.648;23.332;2023-04-09T00:19:57;94734.44;;;5.09;100.00
65832;BME280;52593;42.648;23.332;2023-04-09T00:22:23;94743.22;;;5.20;100.00
65832;BME280;52593;42.648;23.332;2023-04-09T00:24:48;94732.19;;;5.14;100.00
65832;BME280;52593;42.648;23.332;2023-04-09T00:27:13;94741.28;;;5.12;100.00
65832;BME280;52593;42.648;23.332;2023-04-09T00:29:39;94738.19;;;5.16;99.68
65832;BME280;52593;42.648;23.332;2023-04-09T00:32:05;94742.66;;;5.16;99.20
65832;BME280;52593;42.648;23.332;2023-04-09T00:34:31;94732.47;;;5.11;98.72
65832;BME280;52593;42.648;23.332;2023-04-09T00:36:56;94736.47;;;5.25;98.58
65832;BME280;52593;42.648;23.332;2023-04-09T00:39:21;94742.47;;;5.27;97.94
65832;BME280;52593;42.648;23.332;2023-04-09T00:41:47;94742.91;;;5.23;97.31
65832;BME280;52593;42.648;23.332;2023-04-09T00:44:12;94726.06;;;5.14;97.28
65832;BME280;52593;42.648;23.332;2023-04-09T00:46:38;94729.97;;;5.10;97.39
65832;BME280;52593;42.648;23.332;2023-04-09T00:49:04;94725.81;;;5.07;97.65
65832;BME280;52593;42.648;23.332;2023-04-09T00:51:29;94735.97;;;5.12;97.54
65832;BME280;52593;42.648;23.332;2023-04-09T00:53:55;94729.13;;;5.09;97.57
65832;BME280;52593;42.648;23.332;2023-04-09T00:56:22;94749.25;;;5.12;97.37
65832;BME280;52593;42.648;23.332;2023-04-09T00:58:48;94748.53;;;5.10;97.87
65832;BME280;52593;42.648;23.332;2023-04-09T01:01:13;94736.00;;;5.02;97.87
65832;BME280;52593;42.648;23.332;2023-04-09T01:03:39;94729.34;;;4.98;98.34
65832;BME280;52593;42.648;23.332;2023-04-09T01:06:09;94743.94;;;5.02;98.16
65832;BME280;52593;42.648;23.332;2023-04-09T01:08:43;94749.25;;;5.02;98.17
65832;BME280;52593;42.648;23.332;2023-04-09T01:11:37;94738.84;;;4.91;98.53
65832;BME280;52593;42.648;23.332;2023-04-09T01:17:05;94734.09;;;4.85;98.99
65832;BME280;52593;42.648;23.332;2023-04-09T01:19:53;94740.38;;;4.93;98.66
65832;BME280;52593;42.648;23.332;2023-04-09T01:30:44;94749.31;;;4.92;98.58
65832;BME280;52593;42.648;23.332;2023-04-09T01:33:12;94756.56;;;4.90;98.53
65832;BME280;52593;42.648;23.332;2023-04-09T01:35:42;94746.00;;;4.71;99.67
65832;BME280;52593;42.648;23.332;2023-04-09T01:38:09;94756.31;;;4.74;99.62
65832;BME280;52593;42.648;23.332;2023-04-09T01:40:35;94742.09;;;4.75;100.00
65832;BME280;52593;42.648;23.332;2023-04-09T01:43:01;94737.66;;;4.66;100.00
65832;BME280;52593;42.648;23.332;2023-04-09T01:45:27;94751.16;;;4.72;100.00
65832;BME280;52593;42.648;23.332;2023-04-09T01:47:53;94746.69;;;4.73;100.00
65832;BME280;52593;42.648;23.332;2023-04-09T01:50:20;94740.03;;;4.59;100.00
65832;BME280;52593;42.648;23.332;2023-04-09T01:52:46;94746.28;;;4.58;100.00
65832;BME280;52593;42.648;23.332;2023-04-09T01:55:12;94741.84;;;4.49;100.00
65832;BME280;52593;42.648;23.332;2023-04-09T01:57:38;94742.81;;;4.57;100.00
65832;BME280;52593;42.648;23.332;2023-04-09T02:00:05;94743.25;;;4.62;100.00
65832;BME280;52593;42.648;23.332;2023-04-09T02:02:37;94754.09;;;4.69;100.00
65832;BME280;52593;42.648;23.332;2023-04-09T02:05:07;94753.81;;;4.72;100.00
65832;BME280;52593;42.648;23.332;2023-04-09T02:07:45;94743.94;;;4.64;99.95
65832;BME280;52593;42.648;23.332;2023-04-09T02:10:12;94751.44;;;4.59;99.78
65832;BME280;52593;42.648;23.332;2023-04-09T02:12:41;94752.44;;;4.58;99.99
65832;BME280;52593;42.648;23.332;2023-04-09T02:15:10;94748.97;;;4.48;99.73
65832;BME280;52593;42.648;23.332;2023-04-09T02:17:37;94747.44;;;4.36;100.00
65832;BME280;52593;42.648;23.332;2023-04-09T02:20:02;94747.72;;;4.33;100.00
65832;BME280;52593;42.648;23.332;2023-04-09T02:22:28;94737.00;;;4.24;100.00
65832;BME280;52593;42.648;23.332;2023-04-09T02:24:54;94741.72;;;4.21;100.00
65832;BME280;52593;42.648;23.332;2023-04-09T02:27:19;94727.69;;;4.10;100.00
65832;BME280;52593;42.648;23.332;2023-04-09T02:29:45;94743.56;;;4.20;100.00
65832;BME280;52593;42.648;23.332;2023-04-09T02:32:10;94744.78;;;4.16;100.00
65832;BME280;52593;42.648;23.332;2023-04-09T02:34:36;94754.44;;;4.17;100.00
65832;BME280;52593;42.648;23.332;2023-04-09T02:37:01;94740.47;;;4.05;100.00
65832;BME280;52593;42.648;23.332;2023-04-09T02:39:26;94741.16;;;3.98;100.00
65832;BME280;52593;42.648;23.332;2023-04-09T02:41:52;94732.09;;;3.90;100.00
65832;BME280;52593;42.648;23.332;2023-04-09T02:44:17;94742.72;;;4.00;100.00
65832;BME280;52593;42.648;23.332;2023-04-09T02:46:43;94740.19;;;3.99;100.00
65832;BME280;52593;42.648;23.332;2023-04-09T02:49:09;94744.66;;;4.08;100.00
65832;BME280;52593;42.648;23.332;2023-04-09T02:51:34;94734.22;;;3.97;99.84
65832;BME280;52593;42.648;23.332;2023-04-09T02:54:00;94743.00;;;3.97;99.59
65832;BME280;52593;42.648;23.332;2023-04-09T02:56:25;94739.91;;;3.92;100.00
65832;BME280;52593;42.648;23.332;2023-04-09T02:58:51;94723.88;;;3.93;100.00
65832;BME280;52593;42.648;23.332;2023-04-09T03:01:18;94732.09;;;3.90;99.79
65832;BME280;52593;42.648;23.332;2023-04-09T03:03:44;94725.69;;;3.73;100.00
65832;BME280;52593;42.648;23.332;2023-04-09T03:06:10;94724.44;;;3.68;100.00
65832;BME280;52593;42.648;23.332;2023-04-09T03:08:35;94737.25;;;3.72;100.00
65832;BME280;52593;42.648;23.332;2023-04-09T03:11:01;94736.84;;;3.77;100.00
65832;BME280;52593;42.648;23.332;2023-04-09T03:13:26;94737.13;;;3.74;99.59
65832;BME280;52593;42.648;23.332;2023-04-09T03:15:52;94728.19;;;3.55;99.33
65832;BME280;52593;42.648;23.332;2023-04-09T03:18:18;94733.19;;;3.59;100.00
65832;BME280;52593;42.648;23.332;2023-04-09T03:20:44;94742.22;;;3.56;100.00
65832;BME280;52593;42.648;23.332;2023-04-09T03:23:10;94736.22;;;3.44;100.00
65832;BME280;52593;42.648;23.332;2023-04-09T03:25:35;94734.69;;;3.42;100.00
65832;BME280;52593;42.648;23.332;2023-04-09T03:28:01;94745.41;;;3.50;100.00
65832;BME280;52593;42.648;23.332;2023-04-09T03:30:27;94732.31;;;3.38;100.00
65832;BME280;52593;42.648;23.332;2023-04-09T03:32:52;94729.69;;;3.48;100.00
65832;BME280;52593;42.648;23.332;2023-04-09T03:35:17;94742.91;;;3.38;100.00
65832;BME280;52593;42.648;23.332;2023-04-09T03:37:43;94726.03;;;3.30;100.00
65832;BME280;52593;42.648;23.332;2023-04-09T03:40:09;94732.28;;;3.29;100.00
65832;BME280;52593;42.648;23.332;2023-04-09T03:42:34;94734.09;;;3.38;100.00
65832;BME280;52593;42.648;23.332;2023-04-09T03:45:02;94729.63;;;3.29;100.00
65832;BME280;52593;42.648;23.332;2023-04-09T03:47:27;94734.50;;;3.33;100.00
65832;BME280;52593;42.648;23.332;2023-04-09T03:49:53;94742.44;;;3.33;100.00
65832;BME280;52593;42.648;23.332;2023-04-09T03:52:18;94746.34;;;3.29;100.00
65832;BME280;52593;42.648;23.332;2023-04-09T03:54:43;94742.44;;;3.33;100.00
65832;BME280;52593;42.648;23.332;2023-04-09T03:57:09;94742.31;;;3.35;100.00
65832;BME280;52593;42.648;23.332;2023-04-09T03:59:34;94754.84;;;3.43;100.00
65832;BME280;52593;42.648;23.332;2023-04-09T04:02:00;94744.16;;;3.44;100.00
65832;BME280;52593;42.648;23.332;2023-04-09T04:04:25;94743.88;;;3.47;100.00
65832;BME280;52593;42.648;23.332;2023-04-09T04:06:51;94753.22;;;3.51;100.00
65832;BME280;52593;42.648;23.332;2023-04-09T04:09:16;94736.25;;;3.54;100.00
65832;BME280;52593;42.648;23.332;2023-04-09T04:11:42;94739.03;;;3.62;100.00
65832;BME280;52593;42.648;23.332;2023-04-09T04:14:07;94736.53;;;3.70;100.00
65832;BME280;52593;42.648;23.332;2023-04-09T04:16:32;94749.94;;;3.88;100.00
65832;BME280;52593;42.648;23.332;2023-04-09T04:18:58;94751.06;;;4.05;100.00
65832;BME280;52593;42.648;23.332;2023-04-09T04:21:23;94742.72;;;4.20;100.00
65832;BME280;52593;42.648;23.332;2023-04-09T04:23:48;94739.66;;;4.24;100.00
65832;BME280;52593;42.648;23.332;2023-04-09T04:26:14;94736.00;;;4.25;100.00
65832;BME280;52593;42.648;23.332;2023-04-09T04:28:39;94742.16;;;4.36;99.59
65832;BME280;52593;42.648;23.332;2023-04-09T04:31:08;94747.72;;;4.52;98.91
65832;BME280;52593;42.648;23.332;2023-04-09T04:33:35;94737.78;;;4.54;98.42
65832;BME280;52593;42.648;23.332;2023-04-09T04:36:12;94743.91;;;4.55;98.02
65832;BME280;52593;42.648;23.332;2023-04-09T04:38:38;94746.28;;;4.58;98.16
65832;BME280;52593;42.648;23.332;2023-04-09T04:41:05;94744.91;;;4.54;97.90
65832;BME280;52593;42.648;23.332;2023-04-09T04:43:30;94738.34;;;4.58;97.74
65832;BME280;52593;42.648;23.332;2023-04-09T04:45:56;94742.53;;;4.70;97.49
65832;BME280;52593;42.648;23.332;2023-04-09T04:48:22;94747.69;;;4.72;97.43
65832;BME280;52593;42.648;23.332;2023-04-09T04:50:57;94744.31;;;4.79;97.36
65832;BME280;52593;42.648;23.332;2023-04-09T04:53:22;94740.53;;;4.82;97.43
65832;BME280;52593;42.648;23.332;2023-04-09T04:55:48;94754.03;;;4.98;96.61
65832;BME280;52593;42.648;23.332;2023-04-09T04:58:13;94753.78;;;4.92;96.87
65832;BME280;52593;42.648;23.332;2023-04-09T05:00:38;94747.03;;;5.07;96.72
65832;BME280;52593;42.648;23.332;2023-04-09T05:03:04;94743.94;;;5.12;95.53
65832;BME280;52593;42.648;23.332;2023-04-09T05:05:30;94751.25;;;5.28;95.69
65832;BME280;52593;42.648;23.332;2023-04-09T05:07:55;94751.69;;;5.23;95.37
65832;BME280;52593;42.648;23.332;2023-04-09T05:10:21;94743.88;;;5.31;95.06
65832;BME280;52593;42.648;23.332;2023-04-09T05:12:46;94753.44;;;5.42;94.29
65832;BME280;52593;42.648;23.332;2023-04-09T05:15:11;94762.03;;;5.54;93.50
65832;BME280;52593;42.648;23.332;2023-04-09T05:17:37;94754.66;;;5.48;92.88
65832;BME280;52593;42.648;23.332;2023-04-09T05:20:02;94754.78;;;5.56;92.86
65832;BME280;52593;42.648;23.332;2023-04-09T05:22:28;94757.81;;;5.61;92.46
65832;BME280;52593;42.648;23.332;2023-04-09T05:24:53;94758.09;;;5.58;92.03
65832;BME280;52593;42.648;23.332;2023-04-09T05:27:19;94756.69;;;5.64;91.74
65832;BME280;52593;42.648;23.332;2023-04-09T05:29:46;94754.94;;;5.54;91.55
65832;BME280;52593;42.648;23.332;2023-04-09T05:32:11;94760.56;;;5.69;91.60
65832;BME280;52593;42.648;23.332;2023-04-09T05:34:37;94755.81;;;5.73;91.63
65832;BME280;52593;42.648;23.332;2023-04-09T05:37:02;94754.94;;;5.72;91.20
65832;BME280;52593;42.648;23.332;2023-04-09T05:39:27;94756.47;;;5.75;90.76
65832;BME280;52593;42.648;23.332;2023-04-09T05:41:53;94746.94;;;5.82;90.66
65832;BME280;52593;42.648;23.332;2023-04-09T05:44:18;94762.28;;;5.88;90.45
65832;BME280;52593;42.648;23.332;2023-04-09T05:46:44;94767.31;;;5.82;90.43
65832;BME280;52593;42.648;23.332;2023-04-09T05:49:10;94770.63;;;5.94;90.60
65832;BME280;52593;42.648;23.332;2023-04-09T05:51:35;94765.00;;;6.06;90.55
65832;BME280;52593;42.648;23.332;2023-04-09T05:54:01;94750.47;;;6.01;90.72
65832;BME280;52593;42.648;23.332;2023-04-09T05:56:27;94756.56;;;6.11;89.78
65832;BME280;52593;42.648;23.332;2023-04-09T05:58:53;94747.06;;;6.09;89.81
65832;BME280;52593;42.648;23.332;2023-04-09T06:01:18;94760.41;;;6.17;88.29
65832;BME280;52593;42.648;23.332;2023-04-09T06:03:44;94754.34;;;6.24;88.47
65832;BME280;52593;42.648;23.332;2023-04-09T06:06:09;94767.13;;;6.39;87.27
65832;BME280;52593;42.648;23.332;2023-04-09T06:08:35;94754.59;;;6.31;86.59
65832;BME280;52593;42.648;23.332;2023-04-09T06:11:00;94754.66;;;6.39;85.90
65832;BME280;52593;42.648;23.332;2023-04-09T06:13:25;94760.19;;;6.46;85.80
65832;BME280;52593;42.648;23.332;2023-04-09T06:15:51;94765.75;;;6.53;85.43
65832;BME280;52593;42.648;23.332;2023-04-09T06:18:16;94755.88;;;6.45;84.93
65832;BME280;52593;42.648;23.332;2023-04-09T06:20:42;94768.00;;;6.48;84.62
65832;BME280;52593;42.648;23.332;2023-04-09T06:23:07;94761.09;;;6.55;83.64
65832;BME280;52593;42.648;23.332;2023-04-09T06:25:34;94763.38;;;6.68;83.20
65832;BME280;52593;42.648;23.332;2023-04-09T06:28:00;94773.44;;;6.82;82.63
65832;BME280;52593;42.648;23.332;2023-04-09T06:30:25;94760.97;;;6.83;81.58
65832;BME280;52593;42.648;23.332;2023-04-09T06:32:51;94758.69;;;6.88;81.27
65832;BME280;52593;42.648;23.332;2023-04-09T06:35:16;94758.31;;;6.83;81.42
65832;BME280;52593;42.648;23.332;2023-04-09T06:37:42;94762.03;;;6.90;81.84
65832;BME280;52593;42.648;23.332;2023-04-09T06:40:07;94773.72;;;6.97;79.97
65832;BME280;52593;42.648;23.332;2023-04-09T06:42:33;94766.69;;;6.88;79.68
65832;BME280;52593;42.648;23.332;2023-04-09T06:44:58;94779.03;;;6.97;80.02
65832;BME280;52593;42.648;23.332;2023-04-09T06:47:24;94776.44;;;7.05;79.92
65832;BME280;52593;42.648;23.332;2023-04-09T06:49:49;94777.63;;;7.11;80.12
65832;BME280;52593;42.648;23.332;2023-04-09T06:52:15;94765.66;;;7.15;79.85
65832;BME280;52593;42.648;23.332;2023-04-09T06:54:40;94770.28;;;7.31;80.03
65832;BME280;52593;42.648;23.332;2023-04-09T06:57:07;94776.59;;;7.64;80.11
65832;BME280;52593;42.648;23.332;2023-04-09T06:59:32;94769.09;;;7.68;77.46
65832;BME280;52593;42.648;23.332;2023-04-09T07:01:58;94783.47;;;7.83;77.35
65832;BME280;52593;42.648;23.332;2023-04-09T07:04:24;94772.59;;;7.68;77.08
65832;BME280;52593;42.648;23.332;2023-04-09T07:06:49;94777.16;;;7.84;77.08
65832;BME280;52593;42.648;23.332;2023-04-09T07:09:16;94775.78;;;7.72;76.28
65832;BME280;52593;42.648;23.332;2023-04-09T07:11:42;94772.25;;;7.63;75.24
65832;BME280;52593;42.648;23.332;2023-04-09T07:14:08;94774.94;;;7.72;75.84
65832;BME280;52593;42.648;23.332;2023-04-09T07:16:33;94778.63;;;7.79;75.49
65832;BME280;52593;42.648;23.332;2023-04-09T07:18:58;94778.00;;;7.85;75.53
65832;BME280;52593;42.648;23.332;2023-04-09T07:21:24;94776.47;;;7.82;76.06
65832;BME280;52593;42.648;23.332;2023-04-09T07:23:52;94761.56;;;7.98;74.95
65832;BME280;52593;42.648;23.332;2023-04-09T07:26:17;94778.56;;;8.05;74.75
65832;BME280;52593;42.648;23.332;2023-04-09T07:28:43;94768.44;;;8.17;73.35
65832;BME280;52593;42.648;23.332;2023-04-09T07:31:08;94771.09;;;8.17;73.42
65832;BME280;52593;42.648;23.332;2023-04-09T07:33:34;94769.78;;;8.29;72.48
65832;BME280;52593;42.648;23.332;2023-04-09T07:36:00;94773.03;;;8.57;71.32
65832;BME280;52593;42.648;23.332;2023-04-09T07:38:27;94772.03;;;8.67;71.19
65832;BME280;52593;42.648;23.332;2023-04-09T07:40:53;94786.03;;;8.69;70.41
65832;BME280;52593;42.648;23.332;2023-04-09T07:43:18;94779.34;;;8.48;69.69
65832;BME280;52593;42.648;23.332;2023-04-09T07:45:43;94782.28;;;8.37;70.39
65832;BME280;52593;42.648;23.332;2023-04-09T07:48:09;94778.50;;;8.48;70.42
65832;BME280;52593;42.648;23.332;2023-04-09T07:50:34;94783.84;;;8.48;70.95
65832;BME280;52593;42.648;23.332;2023-04-09T07:53:00;94782.69;;;8.59;72.30
65832;BME280;52593;42.648;23.332;2023-04-09T07:55:25;94786.00;;;8.52;71.93
65832;BME280;52593;42.648;23.332;2023-04-09T07:57:52;94793.00;;;8.45;71.72
65832;BME280;52593;42.648;23.332;2023-04-09T08:00:18;94789.63;;;8.35;71.45
65832;BME280;52593;42.648;23.332;2023-04-09T08:02:44;94800.31;;;8.35;71.99
65832;BME280;52593;42.648;23.332;2023-04-09T08:05:09;94799.34;;;8.44;72.24
65832;BME280;52593;42.648;23.332;2023-04-09T08:07:35;94799.03;;;8.55;71.15
65832;BME280;52593;42.648;23.332;2023-04-09T08:10:00;94795.47;;;8.38;70.49
65832;BME280;52593;42.648;23.332;2023-04-09T08:12:26;94800.94;;;8.29;70.61
65832;BME280;52593;42.648;23.332;2023-04-09T08:14:51;94805.75;;;8.09;71.27
65832;BME280;52593;42.648;23.332;2023-04-09T08:17:17;94811.50;;;7.96;72.33
65832;BME280;52593;42.648;23.332;2023-04-09T08:19:42;94787.28;;;7.73;72.63
65832;BME280;52593;42.648;23.332;2023-04-09T08:22:07;94803.31;;;7.89;72.39
65832;BME280;52593;42.648;23.332;2023-04-09T08:24:33;94804.31;;;7.88;72.38
65832;BME280;52593;42.648;23.332;2023-04-09T08:26:59;94811.03;;;8.00;72.75
65832;BME280;52593;42.648;23.332;2023-04-09T08:29:26;94811.91;;;8.17;71.78
65832;BME280;52593;42.648;23.332;2023-04-09T08:31:51;94798.56;;;8.17;71.11
65832;BME280;52593;42.648;23.332;2023-04-09T08:34:17;94813.72;;;8.09;71.46
65832;BME280;52593;42.648;23.332;2023-04-09T08:36:45;94804.72;;;8.10;71.70
65832;BME280;52593;42.648;23.332;2023-04-09T08:39:11;94805.91;;;7.73;72.56
65832;BME280;52593;42.648;23.332;2023-04-09T08:41:41;94806.72;;;7.65;73.30
65832;BME280;52593;42.648;23.332;2023-04-09T08:44:09;94817.94;;;7.77;74.09
65832;BME280;52593;42.648;23.332;2023-04-09T08:46:35;94802.78;;;7.77;73.75
65832;BME280;52593;42.648;23.332;2023-04-09T08:49:01;94813.44;;;7.85;74.18
65832;BME280;52593;42.648;23.332;2023-04-09T08:51:26;94803.66;;;7.94;73.64
65832;BME280;52593;42.648;23.332;2023-04-09T08:54:00;94804.88;;;8.00;73.14
65832;BME280;52593;42.648;23.332;2023-04-09T08:56:26;94793.28;;;8.26;73.15
65832;BME280;52593;42.648;23.332;2023-04-09T08:58:52;94801.94;;;8.19;72.39
65832;BME280;52593;42.648;23.332;2023-04-09T09:06:39;94801.25;;;8.17;72.85
65832;BME280;52593;42.648;23.332;2023-04-09T09:11:33;94795.97;;;8.42;71.53
65832;BME280;52593;42.648;23.332;2023-04-09T09:14:07;94790.34;;;8.62;71.06
65832;BME280;52593;42.648;23.332;2023-04-09T09:16:34;94785.69;;;8.72;70.71
65832;BME280;52593;42.648;23.332;2023-04-09T09:19:04;94778.53;;;8.89;69.18
65832;BME280;52593;42.648;23.332;2023-04-09T09:21:30;94771.84;;;9.18;68.84
65832;BME280;52593;42.648;23.332;2023-04-09T09:23:56;94774.81;;;9.31;66.90
65832;BME280;52593;42.648;23.332;2023-04-09T09:26:24;94772.00;;;9.16;67.29
65832;BME280;52593;42.648;23.332;2023-04-09T09:28:50;94779.66;;;9.27;67.87
65832;BME280;52593;42.648;23.332;2023-04-09T09:31:18;94754.97;;;9.25;66.27
65832;BME280;52593;42.648;23.332;2023-04-09T09:33:44;94770.19;;;9.64;66.89
65832;BME280;52593;42.648;23.332;2023-04-09T09:36:11;94765.38;;;9.99;63.97
65832;BME280;52593;42.648;23.332;2023-04-09T09:38:53;94759.88;;;10.32;64.29
65832;BME280;52593;42.648;23.332;2023-04-09T09:41:19;94768.84;;;10.40;61.96
65832;BME280;52593;42.648;23.332;2023-04-09T09:43:46;94759.00;;;10.63;61.78
65832;BME280;52593;42.648;23.332;2023-04-09T09:46:15;94738.00;;;10.52;61.48
65832;BME280;52593;42.648;23.332;2023-04-09T09:48:41;94760.97;;;10.69;60.17
65832;BME280;52593;42.648;23.332;2023-04-09T09:51:11;94759.06;;;10.78;58.40
65832;BME280;52593;42.648;23.332;2023-04-09T09:53:38;94750.78;;;10.88;59.09
65832;BME280;52593;42.648;23.332;2023-04-09T09:56:04;94747.38;;;10.94;57.50
65832;BME280;52593;42.648;23.332;2023-04-09T09:58:43;94750.38;;;11.14;58.62
65832;BME280;52593;42.648;23.332;2023-04-09T10:01:12;94758.69;;;11.04;58.43
65832;BME280;52593;42.648;23.332;2023-04-09T10:03:39;94751.78;;;11.25;57.59
65832;BME280;52593;42.648;23.332;2023-04-09T10:06:07;94732.59;;;11.36;55.60
65832;BME280;52593;42.648;23.332;2023-04-09T10:08:35;94733.28;;;11.00;56.97
65832;BME280;52593;42.648;23.332;2023-04-09T10:11:04;94744.72;;;10.94;57.09
65832;BME280;52593;42.648;23.332;2023-04-09T10:13:36;94740.81;;;10.82;56.66
65832;BME280;52593;42.648;23.332;2023-04-09T10:16:03;94743.97;;;11.00;57.35
65832;BME280;52593;42.648;23.332;2023-04-09T10:18:29;94727.56;;;11.03;56.91
65832;BME280;52593;42.648;23.332;2023-04-09T10:21:04;94736.22;;;11.05;55.74
65832;BME280;52593;42.648;23.332;2023-04-09T10:23:40;94729.78;;;11.15;55.65
65832;BME280;52593;42.648;23.332;2023-04-09T10:26:06;94737.03;;;11.44;54.26
65832;BME280;52593;42.648;23.332;2023-04-09T10:28:32;94732.59;;;11.36;55.70
65832;BME280;52593;42.648;23.332;2023-04-09T10:30:58;94723.72;;;11.51;54.45
65832;BME280;52593;42.648;23.332;2023-04-09T10:33:26;94728.25;;;11.50;54.01
65832;BME280;52593;42.648;23.332;2023-04-09T10:35:53;94728.34;;;11.27;53.83
65832;BME280;52593;42.648;23.332;2023-04-09T10:38:33;94717.69;;;11.78;53.49
65832;BME280;52593;42.648;23.332;2023-04-09T10:41:15;94707.03;;;12.00;52.52
65832;BME280;52593;42.648;23.332;2023-04-09T10:43:46;94703.78;;;12.41;51.97
65832;BME280;52593;42.648;23.332;2023-04-09T10:46:35;94706.78;;;12.53;51.56
65832;BME280;52593;42.648;23.332;2023-04-09T10:51:37;94694.72;;;12.64;50.68
65832;BME280;52593;42.648;23.332;2023-04-09T10:54:49;94691.91;;;12.29;51.53
65832;BME280;52593;42.648;23.332;2023-04-09T10:59:34;94693.47;;;13.16;50.19
65832;BME280;52593;42.648;23.332;2023-04-09T11:02:00;94687.66;;;13.76;48.92
65832;BME280;52593;42.648;23.332;2023-04-09T11:07:18;94675.53;;;13.94;46.83
65832;BME280;52593;42.648;23.332;2023-04-09T11:09:46;94678.88;;;13.26;46.96
65832;BME280;52593;42.648;23.332;2023-04-09T11:12:11;94677.31;;;12.60;49.10
65832;BME280;52593;42.648;23.332;2023-04-09T11:14:37;94688.44;;;12.35;51.09
65832;BME280;52593;42.648;23.332;2023-04-09T11:17:02;94685.44;;;12.23;51.50
65832;BME280;52593;42.648;23.332;2023-04-09T11:19:28;94675.53;;;12.02;53.04
65832;BME280;52593;42.648;23.332;2023-04-09T11:21:54;94683.94;;;11.84;53.80
65832;BME280;52593;42.648;23.332;2023-04-09T11:24:20;94674.53;;;11.73;52.90
65832;BME280;52593;42.648;23.332;2023-04-09T11:26:47;94676.13;;;11.53;54.15
65832;BME280;52593;42.648;23.332;2023-04-09T11:29:13;94685.66;;;11.55;53.86
65832;BME280;52593;42.648;23.332;2023-04-09T11:31:43;94686.31;;;11.28;55.93
65832;BME280;52593;42.648;23.332;2023-04-09T11:34:09;94676.13;;;11.08;57.42
65832;BME280;52593;42.648;23.332;2023-04-09T11:36:36;94684.25;;;11.15;56.83
65832;BME280;52593;42.648;23.332;2023-04-09T11:39:02;94684.44;;;11.13;57.48
65832;BME280;52593;42.648;23.332;2023-04-09T11:43:57;94676.91;;;11.32;56.43
65832;BME280;52593;42.648;23.332;2023-04-09T11:46:23;94677.81;;;11.09;55.69
65832;BME280;52593;42.648;23.332;2023-04-09T11:48:50;94671.13;;;10.90;56.27
65832;BME280;52593;42.648;23.332;2023-04-09T11:51:16;94679.63;;;11.09;56.50
65832;BME280;52593;42.648;23.332;2023-04-09T11:53:42;94679.09;;;10.98;56.92
65832;BME280;52593;42.648;23.332;2023-04-09T11:56:07;94671.88;;;10.99;55.07
65832;BME280;52593;42.648;23.332;2023-04-09T11:58:34;94663.44;;;10.87;54.86
65832;BME280;52593;42.648;23.332;2023-04-09T12:00:59;94666.53;;;10.99;55.57
65832;BME280;52593;42.648;23.332;2023-04-09T12:03:29;94663.81;;;10.84;55.48
65832;BME280;52593;42.648;23.332;2023-04-09T12:05:58;94669.75;;;10.56;56.85
65832;BME280;52593;42.648;23.332;2023-04-09T12:08:26;94662.19;;;10.45;58.04
65832;BME280;52593;42.648;23.332;2023-04-09T12:10:51;94669.31;;;10.52;61.20
65832;BME280;52593;42.648;23.332;2023-04-09T12:13:17;94675.47;;;10.53;60.66
65832;BME280;52593;42.648;23.332;2023-04-09T12:15:42;94659.78;;;10.27;58.45
65832;BME280;52593;42.648;23.332;2023-04-09T12:18:12;94654.31;;;10.43;60.79
65832;BME280;52593;42.648;23.332;2023-04-09T12:20:39;94667.81;;;10.50;58.58
65832;BME280;52593;42.648;23.332;2023-04-09T12:23:06;94657.38;;;10.93;58.45
65832;BME280;52593;42.648;23.332;2023-04-09T12:25:36;94646.00;;;10.61;54.57
65832;BME280;52593;42.648;23.332;2023-04-09T12:28:03;94641.50;;;11.21;55.25
65832;BME280;52593;42.648;23.332;2023-04-09T12:30:30;94636.91;;;11.67;53.29
65832;BME280;52593;42.648;23.332;2023-04-09T12:32:55;94639.56;;;11.82;52.11
65832;BME280;52593;42.648;23.332;2023-04-09T12:35:21;94636.75;;;12.26;51.71
65832;BME280;52593;42.648;23.332;2023-04-09T12:37:47;94633.84;;;12.21;50.14
65832;BME280;52593;42.648;23.332;2023-04-09T12:40:13;94611.34;;;12.22;50.20
65832;BME280;52593;42.648;23.332;2023-04-09T12:42:40;94639.31;;;11.76;50.77
65832;BME280;52593;42.648;23.332;2023-04-09T12:45:07;94633.94;;;11.76;51.42
65832;BME280;52593;42.648;23.332;2023-04-09T12:47:33;94620.63;;;11.83;51.35
65832;BME280;52593;42.648;23.332;2023-04-09T12:49:58;94601.44;;;11.65;52.35
65832;BME280;52593;42.648;23.332;2023-04-09T12:52:23;94616.44;;;11.81;51.08
65832;BME280;52593;42.648;23.332;2023-04-09T12:54:51;94625.34;;;12.18;49.58
65832;BME280;52593;42.648;23.332;2023-04-09T12:57:16;94629.03;;;12.38;50.53
65832;BME280;52593;42.648;23.332;2023-04-09T12:59:42;94625.16;;;12.69;49.80
65832;BME280;52593;42.648;23.332;2023-04-09T13:02:07;94628.50;;;12.71;49.13
65832;BME280;52593;42.648;23.332;2023-04-09T13:04:33;94620.41;;;12.21;50.37
65832;BME280;52593;42.648;23.332;2023-04-09T13:06:58;94620.91;;;12.53;51.21
65832;BME280;52593;42.648;23.332;2023-04-09T13:09:23;94615.44;;;12.96;50.19
65832;BME280;52593;42.648;23.332;2023-04-09T13:11:49;94618.81;;;12.77;48.68
65832;BME280;52593;42.648;23.332;2023-04-09T13:14:15;94615.00;;;12.93;47.96
65832;BME280;52593;42.648;23.332;2023-04-09T13:16:41;94612.38;;;13.06;48.99
65832;BME280;52593;42.648;23.332;2023-04-09T13:19:07;94614.84;;;13.01;50.10
65832;BME280;52593;42.648;23.332;2023-04-09T13:21:33;94609.31;;;12.74;49.87